sensor_id;sensor_type;location;lat;lon;timestamp;pressure;altitude;pressure_sealevel;temperature;humidity
31483;BME280;18103;52.246;8.052;2022-10-31T00:00:13;100884.88;;;15.66;78.38
31483;BME280;18103;52.246;8.052;2022-10-31T00:02:39;100887.25;;;15.60;79.38
31483;BME280;18103;52.246;8.052;2022-10-31T00:05:04;100891.47;;;15.52;79.29
31483;BME280;18103;52.246;8.052;2022-10-31T00:07:30;100893.44;;;15.50;79.72
31483;BME280;18103;52.246;8.052;2022-10-31T00:09:55;100892.41;;;15.42;80.02
31483;BME280;18103;52.246;8.052;2022-10-31T00:12:20;100893.00;;;15.45;79.58
31483;BME280;18103;52.246;8.052;2022-10-31T00:14:46;100900.41;;;15.42;79.52
31483;BME280;18103;52.246;8.052;2022-10-31T00:17:11;100896.34;;;15.37;80.09
31483;BME280;18103;52.246;8.052;2022-10-31T00:19:36;100902.34;;;15.30;80.16
31483;BME280;18103;52.246;8.052;2022-10-31T00:22:02;100895.06;;;15.22;80.50
31483;BME280;18103;52.246;8.052;2022-10-31T00:24:27;100903.63;;;15.26;79.70
31483;BME280;18103;52.246;8.052;2022-10-31T00:26:52;100897.19;;;15.28;79.80
31483;BME280;18103;52.246;8.052;2022-10-31T00:29:17;100895.47;;;15.17;80.47
31483;BME280;18103;52.246;8.052;2022-10-31T00:31:43;100902.03;;;15.13;80.01
31483;BME280;18103;52.246;8.052;2022-10-31T00:34:08;100898.84;;;15.10;79.67
31483;BME280;18103;52.246;8.052;2022-10-31T00:36:33;100905.66;;;15.12;79.64
31483;BME280;18103;52.246;8.052;2022-10-31T00:38:59;100907.06;;;15.06;79.56
31483;BME280;18103;52.246;8.052;2022-10-31T00:41:24;100908.75;;;15.08;79.67
31483;BME280;18103;52.246;8.052;2022-10-31T00:43:50;100908.31;;;15.02;80.20
31483;BME280;18103;52.246;8.052;2022-10-31T00:46:15;100896.84;;;15.02;80.39
31483;BME280;18103;52.246;8.052;2022-10-31T00:48:41;100908.06;;;15.05;80.05
31483;BME280;18103;52.246;8.052;2022-10-31T00:51:07;100918.09;;;15.02;80.16
31483;BME280;18103;52.246;8.052;2022-10-31T00:53:35;100921.56;;;14.93;80.89
31483;BME280;18103;52.246;8.052;2022-10-31T00:56:01;100914.44;;;14.93;80.78
31483;BME280;18103;52.246;8.052;2022-10-31T00:58:26;100909.09;;;14.83;80.82
31483;BME280;18103;52.246;8.052;2022-10-31T01:00:52;100911.91;;;14.82;80.61
31483;BME280;18103;52.246;8.052;2022-10-31T01:03:21;100914.25;;;14.75;80.84
31483;BME280;18103;52.246;8.052;2022-10-31T01:06:05;100911.44;;;14.77;80.49
31483;BME280;18103;52.246;8.052;2022-10-31T01:08:31;100923.59;;;14.69;80.86
31483;BME280;18103;52.246;8.052;2022-10-31T01:13:28;100923.59;;;14.69;80.62
31483;BME280;18103;52.246;8.052;2022-10-31T01:15:55;100924.59;;;14.78;80.47
31483;BME280;18103;52.246;8.052;2022-10-31T01:18:21;100927.06;;;14.70;80.20
31483;BME280;18103;52.246;8.052;2022-10-31T01:20:46;100924.09;;;14.63;80.98
31483;BME280;18103;52.246;8.052;2022-10-31T01:23:11;100931.47;;;14.60;80.70
31483;BME280;18103;52.246;8.052;2022-10-31T01:25:37;100939.31;;;14.61;80.73
31483;BME280;18103;52.246;8.052;2022-10-31T01:28:02;100925.22;;;14.61;80.52
31483;BME280;18103;52.246;8.052;2022-10-31T01:30:27;100931.63;;;14.58;81.13
31483;BME280;18103;52.246;8.052;2022-10-31T01:32:53;100926.44;;;14.57;80.91
31483;BME280;18103;52.246;8.052;2022-10-31T01:35:18;100921.81;;;14.59;81.14
31483;BME280;18103;52.246;8.052;2022-10-31T01:37:43;100921.13;;;14.57;81.32
31483;BME280;18103;52.246;8.052;2022-10-31T01:40:09;100922.22;;;14.54;81.31
31483;BME280;18103;52.246;8.052;2022-10-31T01:42:34;100914.13;;;14.55;81.56
31483;BME280;18103;52.246;8.052;2022-10-31T01:45:01;100924.03;;;14.53;81.21
31483;BME280;18103;52.246;8.052;2022-10-31T01:47:42;100924.03;;;14.53;82.06
31483;BME280;18103;52.246;8.052;2022-10-31T01:50:38;100915.31;;;14.63;80.97
31483;BME280;18103;52.246;8.052;2022-10-31T01:53:05;100914.19;;;14.65;81.27
31483;BME280;18103;52.246;8.052;2022-10-31T01:55:34;100916.91;;;14.54;81.48
31483;BME280;18103;52.246;8.052;2022-10-31T01:58:06;100921.53;;;14.62;81.35
31483;BME280;18103;52.246;8.052;2022-10-31T02:00:32;100925.03;;;14.52;81.37
31483;BME280;18103;52.246;8.052;2022-10-31T02:02:58;100926.69;;;14.53;81.04
31483;BME280;18103;52.246;8.052;2022-10-31T02:05:26;100923.47;;;14.50;81.52
31483;BME280;18103;52.246;8.052;2022-10-31T02:08:03;100924.16;;;14.52;81.37
31483;BME280;18103;52.246;8.052;2022-10-31T02:10:34;100927.50;;;14.44;81.02
31483;BME280;18103;52.246;8.052;2022-10-31T02:13:03;100925.41;;;14.48;81.45
31483;BME280;18103;52.246;8.052;2022-10-31T02:15:29;100926.25;;;14.48;81.40
31483;BME280;18103;52.246;8.052;2022-10-31T02:17:56;100930.97;;;14.45;81.40
31483;BME280;18103;52.246;8.052;2022-10-31T02:20:24;100929.94;;;14.36;81.79
31483;BME280;18103;52.246;8.052;2022-10-31T02:28:52;100934.09;;;14.29;80.84
31483;BME280;18103;52.246;8.052;2022-10-31T02:31:43;100933.16;;;14.30;81.18
31483;BME280;18103;52.246;8.052;2022-10-31T02:34:34;100932.16;;;14.31;80.98
31483;BME280;18103;52.246;8.052;2022-10-31T02:37:24;100916.88;;;14.23;81.35
31483;BME280;18103;52.246;8.052;2022-10-31T02:40:14;100931.44;;;14.29;80.46
31483;BME280;18103;52.246;8.052;2022-10-31T02:42:51;100929.69;;;14.18;81.35
31483;BME280;18103;52.246;8.052;2022-10-31T02:45:31;100924.38;;;14.18;81.44
31483;BME280;18103;52.246;8.052;2022-10-31T02:48:03;100929.69;;;14.18;81.41
31483;BME280;18103;52.246;8.052;2022-10-31T02:50:34;100932.09;;;14.21;81.19
31483;BME280;18103;52.246;8.052;2022-10-31T02:53:02;100942.34;;;14.26;81.20
31483;BME280;18103;52.246;8.052;2022-10-31T02:57:59;100937.53;;;14.19;81.55
31483;BME280;18103;52.246;8.052;2022-10-31T03:00:26;100939.34;;;14.19;81.14
31483;BME280;18103;52.246;8.052;2022-10-31T03:08:09;100939.97;;;14.11;81.32
31483;BME280;18103;52.246;8.052;2022-10-31T03:10:51;100939.66;;;14.04;81.39
31483;BME280;18103;52.246;8.052;2022-10-31T03:17:01;100960.78;;;14.06;81.73
31483;BME280;18103;52.246;8.052;2022-10-31T03:19:26;100964.66;;;14.02;81.73
31483;BME280;18103;52.246;8.052;2022-10-31T03:21:59;100960.31;;;14.01;81.78
31483;BME280;18103;52.246;8.052;2022-10-31T03:24:30;100959.97;;;13.94;82.23
31483;BME280;18103;52.246;8.052;2022-10-31T03:26:59;100956.38;;;13.95;81.70
31483;BME280;18103;52.246;8.052;2022-10-31T03:29:28;100958.34;;;13.82;82.31
31483;BME280;18103;52.246;8.052;2022-10-31T03:31:59;100948.59;;;13.82;81.22
31483;BME280;18103;52.246;8.052;2022-10-31T03:34:26;100946.97;;;13.91;81.34
31483;BME280;18103;52.246;8.052;2022-10-31T03:36:55;100949.22;;;13.96;81.81
31483;BME280;18103;52.246;8.052;2022-10-31T03:39:22;100944.44;;;13.90;81.97
31483;BME280;18103;52.246;8.052;2022-10-31T03:42:14;100941.94;;;13.88;82.35
31483;BME280;18103;52.246;8.052;2022-10-31T03:44:43;100937.31;;;13.90;82.00
31483;BME280;18103;52.246;8.052;2022-10-31T03:47:11;100941.72;;;13.80;82.39
31483;BME280;18103;52.246;8.052;2022-10-31T03:49:37;100941.25;;;13.75;81.98
31483;BME280;18103;52.246;8.052;2022-10-31T03:52:35;100948.38;;;13.74;81.84
31483;BME280;18103;52.246;8.052;2022-10-31T03:55:10;100947.84;;;13.80;81.70
31483;BME280;18103;52.246;8.052;2022-10-31T03:57:43;100944.03;;;13.73;81.57
31483;BME280;18103;52.246;8.052;2022-10-31T04:00:13;100949.84;;;13.67;81.83
31483;BME280;18103;52.246;8.052;2022-10-31T04:02:49;100948.53;;;13.61;82.24
31483;BME280;18103;52.246;8.052;2022-10-31T04:05:16;100946.72;;;13.62;81.93
31483;BME280;18103;52.246;8.052;2022-10-31T04:07:46;100951.94;;;13.52;82.11
31483;BME280;18103;52.246;8.052;2022-10-31T04:10:16;100954.22;;;13.45;82.13
31483;BME280;18103;52.246;8.052;2022-10-31T04:12:45;100955.09;;;13.46;81.97
31483;BME280;18103;52.246;8.052;2022-10-31T04:15:14;100950.88;;;13.43;81.90
31483;BME280;18103;52.246;8.052;2022-10-31T04:17:41;100942.31;;;13.28;82.08
31483;BME280;18103;52.246;8.052;2022-10-31T04:20:09;100947.47;;;13.30;81.64
31483;BME280;18103;52.246;8.052;2022-10-31T04:22:35;100937.38;;;13.35;81.74
31483;BME280;18103;52.246;8.052;2022-10-31T04:25:00;100949.31;;;13.29;81.77
31483;BME280;18103;52.246;8.052;2022-10-31T04:27:25;100961.47;;;13.32;81.71
31483;BME280;18103;52.246;8.052;2022-10-31T04:29:51;100956.06;;;13.22;82.18
31483;BME280;18103;52.246;8.052;2022-10-31T04:32:16;100955.84;;;13.14;81.86
31483;BME280;18103;52.246;8.052;2022-10-31T04:34:41;100962.78;;;13.15;82.26
31483;BME280;18103;52.246;8.052;2022-10-31T04:37:09;100960.16;;;13.26;81.73
31483;BME280;18103;52.246;8.052;2022-10-31T04:39:35;100967.38;;;13.35;81.67
31483;BME280;18103;52.246;8.052;2022-10-31T04:42:00;100970.91;;;13.36;80.98
31483;BME280;18103;52.246;8.052;2022-10-31T04:44:26;100972.19;;;13.30;80.74
31483;BME280;18103;52.246;8.052;2022-10-31T04:46:51;100967.75;;;13.31;82.14
31483;BME280;18103;52.246;8.052;2022-10-31T04:49:16;100961.47;;;13.32;82.52
31483;BME280;18103;52.246;8.052;2022-10-31T04:51:42;100964.63;;;13.14;82.50
31483;BME280;18103;52.246;8.052;2022-10-31T04:54:07;100953.63;;;13.19;82.46
31483;BME280;18103;52.246;8.052;2022-10-31T04:56:33;100958.09;;;13.18;82.19
31483;BME280;18103;52.246;8.052;2022-10-31T04:58:58;100957.41;;;13.16;82.10
31483;BME280;18103;52.246;8.052;2022-10-31T05:01:23;100963.53;;;13.17;81.99
31483;BME280;18103;52.246;8.052;2022-10-31T05:03:49;100963.28;;;13.09;82.00
31483;BME280;18103;52.246;8.052;2022-10-31T05:06:14;100954.50;;;13.08;81.70
31483;BME280;18103;52.246;8.052;2022-10-31T05:08:42;100958.50;;;13.03;82.05
31483;BME280;18103;52.246;8.052;2022-10-31T05:11:07;100950.53;;;13.03;81.93
31483;BME280;18103;52.246;8.052;2022-10-31T05:13:36;100954.63;;;12.95;82.66
31483;BME280;18103;52.246;8.052;2022-10-31T05:16:02;100952.81;;;12.96;82.01
31483;BME280;18103;52.246;8.052;2022-10-31T05:18:28;100949.09;;;12.98;81.92
31483;BME280;18103;52.246;8.052;2022-10-31T05:20:53;100946.53;;;12.86;82.24
31483;BME280;18103;52.246;8.052;2022-10-31T05:23:18;100949.94;;;12.88;81.72
31483;BME280;18103;52.246;8.052;2022-10-31T05:25:44;100943.31;;;12.82;82.04
31483;BME280;18103;52.246;8.052;2022-10-31T05:28:12;100949.06;;;12.76;82.43
31483;BME280;18103;52.246;8.052;2022-10-31T05:30:37;100946.78;;;12.82;82.05
31483;BME280;18103;52.246;8.052;2022-10-31T05:33:03;100937.66;;;12.75;82.28
31483;BME280;18103;52.246;8.052;2022-10-31T05:35:32;100943.06;;;12.62;82.56
31483;BME280;18103;52.246;8.052;2022-10-31T05:37:58;100941.00;;;12.66;82.33
31483;BME280;18103;52.246;8.052;2022-10-31T05:40:25;100939.59;;;12.62;81.99
31483;BME280;18103;52.246;8.052;2022-10-31T05:42:52;100946.09;;;12.58;82.07
31483;BME280;18103;52.246;8.052;2022-10-31T05:45:18;100945.19;;;12.46;82.64
31483;BME280;18103;52.246;8.052;2022-10-31T05:47:55;100941.84;;;12.44;82.43
31483;BME280;18103;52.246;8.052;2022-10-31T05:50:21;100939.66;;;12.49;82.32
31483;BME280;18103;52.246;8.052;2022-10-31T05:52:53;100941.34;;;12.50;82.17
31483;BME280;18103;52.246;8.052;2022-10-31T05:55:19;100938.09;;;12.46;82.82
31483;BME280;18103;52.246;8.052;2022-10-31T05:57:44;100936.19;;;12.48;82.36
31483;BME280;18103;52.246;8.052;2022-10-31T06:00:12;100941.59;;;12.47;82.77
31483;BME280;18103;52.246;8.052;2022-10-31T06:02:41;100943.03;;;12.40;82.71
31483;BME280;18103;52.246;8.052;2022-10-31T06:05:06;100942.19;;;12.39;82.89
31483;BME280;18103;52.246;8.052;2022-10-31T06:07:33;100944.34;;;12.34;82.46
31483;BME280;18103;52.246;8.052;2022-10-31T06:09:59;100940.84;;;12.33;82.46
31483;BME280;18103;52.246;8.052;2022-10-31T06:12:25;100941.59;;;12.36;82.70
31483;BME280;18103;52.246;8.052;2022-10-31T06:14:53;100943.25;;;12.37;82.71
31483;BME280;18103;52.246;8.052;2022-10-31T06:17:18;100945.91;;;12.37;82.33
31483;BME280;18103;52.246;8.052;2022-10-31T06:19:43;100944.47;;;12.32;82.75
31483;BME280;18103;52.246;8.052;2022-10-31T06:22:09;100945.56;;;12.41;82.84
31483;BME280;18103;52.246;8.052;2022-10-31T06:24:36;100948.47;;;12.38;83.16
31483;BME280;18103;52.246;8.052;2022-10-31T06:27:02;100946.41;;;12.42;82.83
31483;BME280;18103;52.246;8.052;2022-10-31T06:29:27;100953.75;;;12.38;83.34
31483;BME280;18103;52.246;8.052;2022-10-31T06:31:52;100959.25;;;12.35;82.73
31483;BME280;18103;52.246;8.052;2022-10-31T06:34:18;100947.34;;;12.29;82.72
31483;BME280;18103;52.246;8.052;2022-10-31T06:36:45;100955.13;;;12.20;82.97
31483;BME280;18103;52.246;8.052;2022-10-31T06:39:11;100955.63;;;12.25;83.02
31483;BME280;18103;52.246;8.052;2022-10-31T06:41:36;100955.63;;;12.25;82.93
31483;BME280;18103;52.246;8.052;2022-10-31T06:44:02;100955.88;;;12.22;82.63
31483;BME280;18103;52.246;8.052;2022-10-31T06:46:27;100962.84;;;12.23;83.04
31483;BME280;18103;52.246;8.052;2022-10-31T06:48:53;100955.66;;;12.36;82.88
31483;BME280;18103;52.246;8.052;2022-10-31T06:51:18;100960.69;;;12.28;83.01
31483;BME280;18103;52.246;8.052;2022-10-31T06:53:43;100952.75;;;12.28;83.03
31483;BME280;18103;52.246;8.052;2022-10-31T06:56:09;100959.50;;;12.32;83.06
31483;BME280;18103;52.246;8.052;2022-10-31T06:58:34;100968.38;;;12.31;83.09
31483;BME280;18103;52.246;8.052;2022-10-31T07:01:00;100960.94;;;12.36;82.78
31483;BME280;18103;52.246;8.052;2022-10-31T07:03:25;100966.38;;;12.46;82.97
31483;BME280;18103;52.246;8.052;2022-10-31T07:05:51;100969.88;;;12.46;83.32
31483;BME280;18103;52.246;8.052;2022-10-31T07:08:19;100971.81;;;12.44;83.58
31483;BME280;18103;52.246;8.052;2022-10-31T07:10:52;100967.84;;;12.50;83.19
31483;BME280;18103;52.246;8.052;2022-10-31T07:13:17;100972.31;;;12.61;83.59
31483;BME280;18103;52.246;8.052;2022-10-31T07:15:49;100979.19;;;12.63;84.10
31483;BME280;18103;52.246;8.052;2022-10-31T07:18:15;100972.69;;;12.68;83.75
31483;BME280;18103;52.246;8.052;2022-10-31T07:20:43;100975.56;;;12.76;83.75
31483;BME280;18103;52.246;8.052;2022-10-31T07:23:11;100976.31;;;12.89;83.68
31483;BME280;18103;52.246;8.052;2022-10-31T07:25:40;100976.31;;;12.89;83.55
31483;BME280;18103;52.246;8.052;2022-10-31T07:28:06;100977.13;;;12.90;83.48
31483;BME280;18103;52.246;8.052;2022-10-31T07:30:32;100988.00;;;12.98;83.40
31483;BME280;18103;52.246;8.052;2022-10-31T07:32:58;100992.56;;;13.07;83.28
31483;BME280;18103;52.246;8.052;2022-10-31T07:35:26;100990.88;;;13.06;83.11
31483;BME280;18103;52.246;8.052;2022-10-31T07:37:52;100993.66;;;13.05;83.41
31483;BME280;18103;52.246;8.052;2022-10-31T07:40:18;100993.53;;;13.06;83.18
31483;BME280;18103;52.246;8.052;2022-10-31T07:42:48;100998.13;;;13.15;82.97
31483;BME280;18103;52.246;8.052;2022-10-31T07:45:16;100998.13;;;13.15;83.19
31483;BME280;18103;52.246;8.052;2022-10-31T07:50:13;100981.00;;;13.31;82.48
31483;BME280;18103;52.246;8.052;2022-10-31T07:52:39;100980.88;;;13.32;82.84
31483;BME280;18103;52.246;8.052;2022-10-31T07:55:05;100985.13;;;13.35;82.93
31483;BME280;18103;52.246;8.052;2022-10-31T07:57:30;100987.25;;;13.41;82.89
31483;BME280;18103;52.246;8.052;2022-10-31T07:59:56;100991.34;;;13.45;82.96
31483;BME280;18103;52.246;8.052;2022-10-31T08:02:22;100990.16;;;13.49;82.61
31483;BME280;18103;52.246;8.052;2022-10-31T08:04:48;100992.81;;;13.49;82.61
31483;BME280;18103;52.246;8.052;2022-10-31T08:07:13;100990.66;;;13.43;82.20
31483;BME280;18103;52.246;8.052;2022-10-31T08:09:39;100987.50;;;13.49;81.69
31483;BME280;18103;52.246;8.052;2022-10-31T08:12:04;100994.97;;;13.44;81.92
31483;BME280;18103;52.246;8.052;2022-10-31T08:14:33;100990.41;;;13.46;81.96
31483;BME280;18103;52.246;8.052;2022-10-31T08:16:59;100985.81;;;13.48;82.10
31483;BME280;18103;52.246;8.052;2022-10-31T08:19:25;100983.63;;;13.54;81.96
31483;BME280;18103;52.246;8.052;2022-10-31T08:21:51;100980.47;;;13.60;82.19
31483;BME280;18103;52.246;8.052;2022-10-31T08:24:17;100983.22;;;13.69;80.92
31483;BME280;18103;52.246;8.052;2022-10-31T08:26:42;100969.50;;;13.64;81.35
31483;BME280;18103;52.246;8.052;2022-10-31T08:29:08;100969.59;;;13.74;81.32
31483;BME280;18103;52.246;8.052;2022-10-31T08:31:33;100971.72;;;13.80;81.64
31483;BME280;18103;52.246;8.052;2022-10-31T08:33:59;100966.16;;;13.83;81.79
31483;BME280;18103;52.246;8.052;2022-10-31T08:36:24;100971.50;;;14.04;81.41
31483;BME280;18103;52.246;8.052;2022-10-31T08:38:49;100960.25;;;14.12;81.39
31483;BME280;18103;52.246;8.052;2022-10-31T08:41:15;100963.63;;;14.14;81.93
31483;BME280;18103;52.246;8.052;2022-10-31T08:43:40;100966.25;;;14.26;81.54
31483;BME280;18103;52.246;8.052;2022-10-31T08:46:06;100969.06;;;14.34;81.39
31483;BME280;18103;52.246;8.052;2022-10-31T08:48:34;100954.69;;;14.36;81.60
31483;BME280;18103;52.246;8.052;2022-10-31T08:51:00;100956.72;;;14.44;81.38
31483;BME280;18103;52.246;8.052;2022-10-31T08:53:26;100955.47;;;14.48;81.36
31483;BME280;18103;52.246;8.052;2022-10-31T08:55:54;100945.72;;;14.59;81.55
31483;BME280;18103;52.246;8.052;2022-10-31T08:58:20;100950.16;;;14.69;81.27
31483;BME280;18103;52.246;8.052;2022-10-31T09:00:48;100951.16;;;14.78;81.38
31483;BME280;18103;52.246;8.052;2022-10-31T09:03:24;100942.69;;;14.84;81.28
31483;BME280;18103;52.246;8.052;2022-10-31T09:05:53;100939.31;;;14.82;81.47
31483;BME280;18103;52.246;8.052;2022-10-31T09:08:19;100945.50;;;14.93;81.66
31483;BME280;18103;52.246;8.052;2022-10-31T09:10:47;100938.78;;;14.98;81.52
31483;BME280;18103;52.246;8.052;2022-10-31T09:13:15;100937.03;;;15.09;81.24
31483;BME280;18103;52.246;8.052;2022-10-31T09:15:42;100932.84;;;15.16;80.44
31483;BME280;18103;52.246;8.052;2022-10-31T09:18:09;100939.28;;;15.23;80.54
31483;BME280;18103;52.246;8.052;2022-10-31T09:20:36;100929.91;;;15.19;80.74
31483;BME280;18103;52.246;8.052;2022-10-31T09:23:10;100932.19;;;15.23;80.87
31483;BME280;18103;52.246;8.052;2022-10-31T09:25:36;100931.19;;;15.34;80.36
31483;BME280;18103;52.246;8.052;2022-10-31T09:28:02;100932.47;;;15.40;80.16
31483;BME280;18103;52.246;8.052;2022-10-31T09:30:31;100930.25;;;15.55;80.03
31483;BME280;18103;52.246;8.052;2022-10-31T09:33:02;100936.16;;;15.59;80.00
31483;BME280;18103;52.246;8.052;2022-10-31T09:35:28;100934.91;;;15.63;80.08
31483;BME280;18103;52.246;8.052;2022-10-31T09:38:12;100925.22;;;15.71;79.99
31483;BME280;18103;52.246;8.052;2022-10-31T09:40:55;100932.69;;;15.87;79.47
31483;BME280;18103;52.246;8.052;2022-10-31T09:43:42;100924.97;;;15.94;79.63
31483;BME280;18103;52.246;8.052;2022-10-31T09:47:00;100931.25;;;16.13;78.78
31483;BME280;18103;52.246;8.052;2022-10-31T09:52:03;100920.53;;;16.42;78.41
31483;BME280;18103;52.246;8.052;2022-10-31T09:54:52;100925.44;;;16.47;78.31
31483;BME280;18103;52.246;8.052;2022-10-31T09:57:25;100932.53;;;16.66;78.06
31483;BME280;18103;52.246;8.052;2022-10-31T09:59:52;100930.59;;;16.58;78.17
31483;BME280;18103;52.246;8.052;2022-10-31T10:02:29;100932.75;;;16.82;77.66
31483;BME280;18103;52.246;8.052;2022-10-31T10:05:05;100931.19;;;16.89;76.87
31483;BME280;18103;52.246;8.052;2022-10-31T10:07:54;100929.25;;;16.91;76.90
31483;BME280;18103;52.246;8.052;2022-10-31T10:16:09;100918.34;;;17.31;75.80
31483;BME280;18103;52.246;8.052;2022-10-31T10:24:43;100917.38;;;17.50;74.12
31483;BME280;18103;52.246;8.052;2022-10-31T10:30:13;100921.72;;;17.51;73.32
31483;BME280;18103;52.246;8.052;2022-10-31T10:32:45;100918.50;;;17.65;73.04
31483;BME280;18103;52.246;8.052;2022-10-31T10:38:51;100918.59;;;17.55;73.29
31483;BME280;18103;52.246;8.052;2022-10-31T10:41:20;100918.00;;;17.79;71.80
31483;BME280;18103;52.246;8.052;2022-10-31T10:43:49;100907.00;;;17.83;71.47
31483;BME280;18103;52.246;8.052;2022-10-31T10:46:48;100905.78;;;17.77;71.52
31483;BME280;18103;52.246;8.052;2022-10-31T10:49:51;100910.41;;;17.75;71.13
31483;BME280;18103;52.246;8.052;2022-10-31T10:52:31;100897.69;;;17.51;71.98
31483;BME280;18103;52.246;8.052;2022-10-31T10:55:03;100902.88;;;17.52;71.65
31483;BME280;18103;52.246;8.052;2022-10-31T11:00:58;100894.56;;;17.55;71.65
31483;BME280;18103;52.246;8.052;2022-10-31T11:02:58;100889.84;;;17.31;72.44
31483;BME280;18103;52.246;8.052;2022-10-31T11:05:26;100890.13;;;17.64;72.37
31483;BME280;18103;52.246;8.052;2022-10-31T11:07:53;100890.34;;;17.89;71.62
31483;BME280;18103;52.246;8.052;2022-10-31T11:10:21;100880.50;;;17.89;71.26
31483;BME280;18103;52.246;8.052;2022-10-31T11:15:57;100881.50;;;17.88;71.20
31483;BME280;18103;52.246;8.052;2022-10-31T11:18:26;100881.34;;;18.08;71.38
31483;BME280;18103;52.246;8.052;2022-10-31T11:20:54;100875.31;;;18.06;71.45
31483;BME280;18103;52.246;8.052;2022-10-31T11:23:22;100863.78;;;18.05;70.28
31483;BME280;18103;52.246;8.052;2022-10-31T11:26:17;100867.06;;;18.25;69.17
31483;BME280;18103;52.246;8.052;2022-10-31T11:28:43;100854.47;;;18.36;69.49
31483;BME280;18103;52.246;8.052;2022-10-31T11:31:12;100859.69;;;18.19;69.64
31483;BME280;18103;52.246;8.052;2022-10-31T11:33:45;100847.31;;;18.44;69.18
31483;BME280;18103;52.246;8.052;2022-10-31T11:36:20;100840.19;;;18.61;69.41
31483;BME280;18103;52.246;8.052;2022-10-31T11:38:47;100831.34;;;18.61;69.20
31483;BME280;18103;52.246;8.052;2022-10-31T11:41:27;100841.16;;;18.52;68.37
31483;BME280;18103;52.246;8.052;2022-10-31T11:46:51;100825.63;;;18.56;69.02
31483;BME280;18103;52.246;8.052;2022-10-31T11:51:54;100820.09;;;18.49;70.83
31483;BME280;18103;52.246;8.052;2022-10-31T11:54:24;100811.69;;;18.36;70.72
31483;BME280;18103;52.246;8.052;2022-10-31T11:56:50;100810.38;;;18.40;70.96
31483;BME280;18103;52.246;8.052;2022-10-31T11:59:30;100794.59;;;18.71;70.32
31483;BME280;18103;52.246;8.052;2022-10-31T12:02:00;100799.63;;;18.74;70.70
31483;BME280;18103;52.246;8.052;2022-10-31T12:04:41;100797.56;;;18.60;70.38
31483;BME280;18103;52.246;8.052;2022-10-31T12:07:10;100787.72;;;18.69;70.33
31483;BME280;18103;52.246;8.052;2022-10-31T12:09:37;100781.59;;;18.76;69.96
31483;BME280;18103;52.246;8.052;2022-10-31T12:17:54;100774.56;;;18.75;71.12
31483;BME280;18103;52.246;8.052;2022-10-31T12:25:44;100768.94;;;19.03;69.73
31483;BME280;18103;52.246;8.052;2022-10-31T12:37:06;100742.69;;;19.07;69.25
31483;BME280;18103;52.246;8.052;2022-10-31T12:58:56;100671.34;;;18.23;68.76
31483;BME280;18103;52.246;8.052;2022-10-31T13:06:43;100650.44;;;18.10;69.73
31483;BME280;18103;52.246;8.052;2022-10-31T13:09:13;100642.69;;;17.99;70.39
31483;BME280;18103;52.246;8.052;2022-10-31T13:12:04;100643.97;;;17.87;70.75
31483;BME280;18103;52.246;8.052;2022-10-31T13:14:40;100640.28;;;17.88;70.58
31483;BME280;18103;52.246;8.052;2022-10-31T13:17:18;100642.63;;;17.83;71.05
31483;BME280;18103;52.246;8.052;2022-10-31T13:19:47;100655.06;;;17.74;70.83
31483;BME280;18103;52.246;8.052;2022-10-31T13:22:18;100646.69;;;17.60;71.83
31483;BME280;18103;52.246;8.052;2022-10-31T13:24:59;100644.28;;;17.84;71.37
31483;BME280;18103;52.246;8.052;2022-10-31T13:27:39;100657.00;;;17.90;71.12
31483;BME280;18103;52.246;8.052;2022-10-31T13:30:13;100653.78;;;17.86;71.42
31483;BME280;18103;52.246;8.052;2022-10-31T13:35:48;100649.44;;;17.77;71.75
31483;BME280;18103;52.246;8.052;2022-10-31T13:41:43;100642.81;;;17.89;71.35
31483;BME280;18103;52.246;8.052;2022-10-31T13:44:23;100647.03;;;18.00;71.14
31483;BME280;18103;52.246;8.052;2022-10-31T13:46:53;100634.94;;;17.88;71.70
31483;BME280;18103;52.246;8.052;2022-10-31T13:51:49;100622.34;;;17.98;71.44
31483;BME280;18103;52.246;8.052;2022-10-31T13:54:30;100599.78;;;17.92;71.73
31483;BME280;18103;52.246;8.052;2022-10-31T13:56:56;100605.72;;;17.86;71.90
31483;BME280;18103;52.246;8.052;2022-10-31T13:59:23;100592.03;;;17.81;72.26
31483;BME280;18103;52.246;8.052;2022-10-31T14:01:55;100583.84;;;17.74;72.60
31483;BME280;18103;52.246;8.052;2022-10-31T14:04:27;100596.75;;;17.53;73.34
31483;BME280;18103;52.246;8.052;2022-10-31T14:06:55;100582.91;;;17.49;73.38
31483;BME280;18103;52.246;8.052;2022-10-31T14:12:30;100585.56;;;17.49;73.75
31483;BME280;18103;52.246;8.052;2022-10-31T14:15:03;100577.53;;;17.41;74.01
31483;BME280;18103;52.246;8.052;2022-10-31T14:17:37;100560.25;;;17.53;73.61
31483;BME280;18103;52.246;8.052;2022-10-31T14:22:39;100567.84;;;17.40;74.14
31483;BME280;18103;52.246;8.052;2022-10-31T14:25:24;100553.47;;;17.33;74.38
31483;BME280;18103;52.246;8.052;2022-10-31T14:27:50;100550.84;;;17.41;74.17
31483;BME280;18103;52.246;8.052;2022-10-31T14:30:19;100542.88;;;17.49;73.82
31483;BME280;18103;52.246;8.052;2022-10-31T14:32:50;100533.69;;;17.43;74.10
31483;BME280;18103;52.246;8.052;2022-10-31T14:35:17;100536.50;;;17.42;74.38
31483;BME280;18103;52.246;8.052;2022-10-31T14:50:58;100511.44;;;17.35;74.73
31483;BME280;18103;52.246;8.052;2022-10-31T14:53:33;100505.81;;;17.38;74.60
31483;BME280;18103;52.246;8.052;2022-10-31T14:56:00;100510.81;;;17.41;74.48
31483;BME280;18103;52.246;8.052;2022-10-31T14:58:37;100513.28;;;17.34;74.69
31483;BME280;18103;52.246;8.052;2022-10-31T15:01:06;100511.44;;;17.26;75.13
31483;BME280;18103;52.246;8.052;2022-10-31T15:03:35;100512.41;;;17.25;74.95
31483;BME280;18103;52.246;8.052;2022-10-31T15:06:12;100519.78;;;17.32;74.74
31483;BME280;18103;52.246;8.052;2022-10-31T15:08:50;100508.63;;;17.36;74.47